createdAt,value
2022-07-31T00:00:45.484Z,11.10
2022-07-31T00:01:47.633Z,15.75
2022-07-31T00:02:50.855Z,9.55
2022-07-31T00:03:53.415Z,8.45
2022-07-31T00:04:56.942Z,9.20
2022-07-31T00:05:58.985Z,9.85
2022-07-31T00:07:02.909Z,18.42
2022-07-31T00:08:07.036Z,10.40
2022-07-31T00:09:48.822Z,8.02
2022-07-31T00:10:33.529Z,11.15
2022-07-31T00:11:36.792Z,18.52
2022-07-31T00:12:38.827Z,10.70
2022-07-31T00:13:56.540Z,11.45
2022-07-31T00:15:01.880Z,11.15
2022-07-31T00:16:04.550Z,10.35
2022-07-31T00:17:07.714Z,10.73
2022-07-31T00:18:09.791Z,10.65
2022-07-31T00:19:12.912Z,9.85
2022-07-31T00:20:16.988Z,9.52
2022-07-31T00:21:20.458Z,10.98
2022-07-31T00:22:22.826Z,9.50
2022-07-31T00:23:27.255Z,12.98
2022-07-31T00:24:30.209Z,9.73
2022-07-31T00:25:33.414Z,11.77
2022-07-31T00:26:35.399Z,10.77
2022-07-31T00:27:38.532Z,12.45
2022-07-31T00:28:40.522Z,8.73
2022-07-31T00:29:43.759Z,10.82
2022-07-31T00:30:45.907Z,15.13
2022-07-31T00:31:49.244Z,8.73
2022-07-31T00:32:51.918Z,11.02
2022-07-31T00:33:55.090Z,9.80
2022-07-31T00:34:57.251Z,18.15
2022-07-31T00:36:00.315Z,10.25
2022-07-31T00:37:02.951Z,13.57
2022-07-31T00:38:26.219Z,13.45
2022-07-31T00:39:32.601Z,12.52
2022-07-31T00:40:34.848Z,8.65
2022-07-31T00:41:42.380Z,8.63
2022-07-31T00:42:44.799Z,9.77
2022-07-31T00:43:47.840Z,14.10
2022-07-31T00:44:50.700Z,10.05
2022-07-31T00:45:59.195Z,11.13
2022-07-31T00:47:01.901Z,9.95
2022-07-31T00:48:06.046Z,11.23
2022-07-31T00:49:10.425Z,10.65
2022-07-31T00:50:14.316Z,13.05
2022-07-31T00:51:17.217Z,21.30
2022-07-31T00:52:20.647Z,15.85
2022-07-31T00:53:22.766Z,49.33
2022-07-31T00:54:26.110Z,22.30
2022-07-31T00:55:29.905Z,19.33
2022-07-31T00:56:32.956Z,14.07
2022-07-31T00:57:35.238Z,12.57
2022-07-31T00:58:38.707Z,12.77
2022-07-31T00:59:41.206Z,15.43
2022-07-31T01:00:44.263Z,10.63
2022-07-31T01:01:47.581Z,14.65
2022-07-31T01:02:50.813Z,13.45
2022-07-31T01:03:54.430Z,13.70
2022-07-31T01:04:56.502Z,16.33
2022-07-31T01:05:59.861Z,11.25
2022-07-31T01:07:02.681Z,9.65
2022-07-31T01:08:06.655Z,21.55
2022-07-31T01:09:08.853Z,17.13
2022-07-31T01:10:15.283Z,13.10
2022-07-31T01:11:24.829Z,12.27
2022-07-31T01:12:34.585Z,14.43
2022-07-31T01:13:47.680Z,11.43
2022-07-31T01:14:54.257Z,9.63
2022-07-31T01:15:59.427Z,10.35
2022-07-31T01:17:03.515Z,13.25
2022-07-31T01:18:09.159Z,22.80
2022-07-31T01:19:23.267Z,9.85
2022-07-31T01:20:44.613Z,11.68
2022-07-31T01:21:56.063Z,18.83
2022-07-31T01:23:19.391Z,10.27
2022-07-31T01:25:04.855Z,9.25
2022-07-31T01:26:32.945Z,8.93
2022-07-31T01:27:58.264Z,12.90
2022-07-31T01:29:11.022Z,11.82
2022-07-31T01:30:15.314Z,11.25
2022-07-31T01:31:27.144Z,10.38
2022-07-31T01:32:35.923Z,12.77
2022-07-31T01:33:47.377Z,9.07
2022-07-31T01:34:56.048Z,7.97
2022-07-31T01:36:06.753Z,8.75
2022-07-31T01:37:14.956Z,11.27
2022-07-31T01:38:22.342Z,10.50
2022-07-31T01:39:27.142Z,8.65
2022-07-31T01:40:43.092Z,10.57
2022-07-31T01:41:48.319Z,11.90
2022-07-31T01:42:53.891Z,11.70
2022-07-31T01:43:58.719Z,8.90
2022-07-31T01:45:04.002Z,14.07
2022-07-31T01:46:10.110Z,8.35
2022-07-31T01:47:14.221Z,8.88
2022-07-31T01:48:17.301Z,11.45
2022-07-31T01:49:21.530Z,10.90
2022-07-31T01:50:42.633Z,9.93
2022-07-31T01:51:48.059Z,10.85
2022-07-31T01:52:52.867Z,9.65
2022-07-31T01:53:56.228Z,10.93
2022-07-31T01:55:00.598Z,10.40
2022-07-31T01:56:04.495Z,11.05
2022-07-31T01:57:17.193Z,13.35
2022-07-31T01:58:25.610Z,11.38
2022-07-31T01:59:31.617Z,11.70
2022-07-31T02:00:49.636Z,9.27
2022-07-31T02:01:54.649Z,13.20
2022-07-31T02:02:58.714Z,11.32
2022-07-31T02:04:14.135Z,13.65
2022-07-31T02:05:19.931Z,16.23
2022-07-31T02:06:24.419Z,17.48
2022-07-31T02:07:27.283Z,13.90
2022-07-31T02:08:32.886Z,13.38
2022-07-31T02:09:36.577Z,13.32
2022-07-31T02:10:40.656Z,16.05
2022-07-31T02:11:53.235Z,17.42
2022-07-31T02:12:58.373Z,17.10
2022-07-31T02:14:02.283Z,14.85
2022-07-31T02:15:09.784Z,13.45
2022-07-31T02:16:19.214Z,14.15
2022-07-31T02:17:24.240Z,13.20
2022-07-31T02:19:00.526Z,12.00
2022-07-31T02:20:06.142Z,12.40
2022-07-31T02:21:09.614Z,12.88
2022-07-31T02:22:13.108Z,14.55
2022-07-31T02:23:16.256Z,12.18
2022-07-31T02:24:19.050Z,15.25
2022-07-31T02:25:22.167Z,11.80
2022-07-31T02:26:27.625Z,11.90
2022-07-31T02:27:56.212Z,16.75
2022-07-31T02:28:54.547Z,15.00
2022-07-31T02:30:00.414Z,18.08
2022-07-31T02:31:04.157Z,15.57
2022-07-31T02:32:10.121Z,13.35
2022-07-31T02:33:16.473Z,14.52
2022-07-31T02:34:21.063Z,15.52
2022-07-31T02:35:32.073Z,12.90
2022-07-31T02:36:36.247Z,14.70
2022-07-31T02:37:40.018Z,12.52
2022-07-31T02:38:44.544Z,14.00
2022-07-31T02:39:49.308Z,15.45
2022-07-31T02:40:54.740Z,14.02
2022-07-31T02:42:01.226Z,15.55
2022-07-31T02:43:05.422Z,14.27
2022-07-31T02:44:12.596Z,13.15
2022-07-31T02:45:15.421Z,14.35
2022-07-31T02:46:19.925Z,14.55
2022-07-31T02:47:24.393Z,12.40
2022-07-31T02:48:28.143Z,15.40
2022-07-31T02:49:34.589Z,16.23
2022-07-31T02:50:39.266Z,19.52
2022-07-31T02:51:42.692Z,13.43
2022-07-31T02:52:47.329Z,15.63
2022-07-31T02:53:49.828Z,11.82
2022-07-31T02:54:57.060Z,13.30
2022-07-31T02:56:04.179Z,16.77
2022-07-31T02:57:09.890Z,13.60
2022-07-31T02:58:12.247Z,14.07
2022-07-31T02:59:16.006Z,11.75
2022-07-31T03:00:34.283Z,12.88
2022-07-31T03:01:38.808Z,15.00
2022-07-31T03:02:43.336Z,14.55
2022-07-31T03:03:46.864Z,15.27
2022-07-31T03:04:49.076Z,14.23
2022-07-31T03:05:52.260Z,12.60
2022-07-31T03:06:54.713Z,17.23
2022-07-31T03:07:57.889Z,14.93
2022-07-31T03:09:00.084Z,14.88
2022-07-31T03:10:03.441Z,14.30
2022-07-31T03:11:18.227Z,14.40
2022-07-31T03:12:24.939Z,16.25
2022-07-31T03:13:31.003Z,15.80
2022-07-31T03:14:35.361Z,14.98
2022-07-31T03:15:40.999Z,13.27
2022-07-31T03:16:44.776Z,13.70
2022-07-31T03:17:50.142Z,14.77
2022-07-31T03:18:59.366Z,11.15
2022-07-31T03:20:01.465Z,13.50
2022-07-31T03:21:05.340Z,11.88
2022-07-31T03:22:12.237Z,11.38
2022-07-31T03:23:22.178Z,13.13
2022-07-31T03:24:30.731Z,12.85
2022-07-31T03:25:34.586Z,23.65
2022-07-31T03:26:36.904Z,11.88
2022-07-31T03:27:40.485Z,13.23
2022-07-31T03:28:44.179Z,13.57
2022-07-31T03:29:46.330Z,17.00
2022-07-31T03:30:55.173Z,15.18
2022-07-31T03:32:01.508Z,18.65
2022-07-31T03:33:07.568Z,15.32
2022-07-31T03:34:14.820Z,14.10
2022-07-31T03:35:18.145Z,14.38
2022-07-31T03:36:21.296Z,12.93
2022-07-31T03:37:24.499Z,16.35
2022-07-31T03:38:39.253Z,17.73
2022-07-31T03:39:53.606Z,17.67
2022-07-31T03:40:56.116Z,16.10
2022-07-31T03:42:00.422Z,14.75
2022-07-31T03:43:03.402Z,14.88
2022-07-31T03:44:07.311Z,18.63
2022-07-31T03:45:12.297Z,15.10
2022-07-31T03:46:17.161Z,13.52
2022-07-31T03:47:19.485Z,15.15
2022-07-31T03:48:24.045Z,16.85
2022-07-31T03:49:27.848Z,15.30
2022-07-31T03:50:31.581Z,14.75
2022-07-31T03:51:34.275Z,16.75
2022-07-31T03:52:38.154Z,17.92
2022-07-31T03:53:41.234Z,15.98
2022-07-31T03:54:44.810Z,23.13
2022-07-31T03:55:51.826Z,13.27
2022-07-31T03:56:57.782Z,15.02
2022-07-31T03:58:01.823Z,15.25
2022-07-31T03:59:04.606Z,14.07
2022-07-31T04:00:16.845Z,13.55
2022-07-31T04:01:20.970Z,13.90
2022-07-31T04:02:27.232Z,14.25
2022-07-31T04:03:40.795Z,17.35
2022-07-31T04:04:57.319Z,14.90
2022-07-31T04:06:00.593Z,14.35
2022-07-31T04:07:03.329Z,16.20
2022-07-31T04:08:07.101Z,12.10
2022-07-31T04:09:15.497Z,19.17
2022-07-31T04:10:22.828Z,12.20
2022-07-31T04:11:25.238Z,12.95
2022-07-31T04:12:28.324Z,14.63
2022-07-31T04:13:30.398Z,13.30
2022-07-31T04:14:33.677Z,12.95
2022-07-31T04:15:35.703Z,13.38
2022-07-31T04:16:38.865Z,15.65
2022-07-31T04:17:40.984Z,13.40
2022-07-31T04:18:50.647Z,13.27
2022-07-31T04:19:53.196Z,13.05
2022-07-31T04:20:56.394Z,17.02
2022-07-31T04:21:59.016Z,13.32
2022-07-31T04:23:03.896Z,14.55
2022-07-31T04:24:42.930Z,15.63
2022-07-31T04:26:05.051Z,15.20
2022-07-31T04:27:17.473Z,26.83
2022-07-31T04:28:20.796Z,14.25
2022-07-31T04:29:23.090Z,13.93
2022-07-31T04:30:26.141Z,17.65
2022-07-31T04:31:28.815Z,15.80
2022-07-31T04:32:31.994Z,15.05
2022-07-31T04:33:48.865Z,17.40
2022-07-31T04:34:56.065Z,14.43
2022-07-31T04:35:58.049Z,20.50
2022-07-31T04:37:01.537Z,19.23
2022-07-31T04:38:03.727Z,14.13
2022-07-31T04:39:11.092Z,16.48
2022-07-31T04:40:13.476Z,14.15
2022-07-31T04:41:17.425Z,14.23
2022-07-31T04:42:20.850Z,16.30
2022-07-31T04:43:24.101Z,17.52
2022-07-31T04:44:26.190Z,20.30
2022-07-31T04:45:31.885Z,21.23
2022-07-31T04:46:34.011Z,15.90
2022-07-31T04:47:37.149Z,14.63
2022-07-31T04:48:41.397Z,13.77
2022-07-31T04:49:47.010Z,20.27
2022-07-31T04:50:53.249Z,15.27
2022-07-31T04:51:56.613Z,15.63
2022-07-31T04:52:59.403Z,15.23
2022-07-31T04:54:08.245Z,14.68
2022-07-31T04:55:11.544Z,15.25
2022-07-31T04:56:32.806Z,14.18
2022-07-31T04:57:36.198Z,13.65
2022-07-31T04:58:38.342Z,17.85
2022-07-31T04:59:59.241Z,14.38
2022-07-31T05:01:02.173Z,15.52
2022-07-31T05:02:07.435Z,13.98
2022-07-31T05:03:10.889Z,17.92
2022-07-31T05:04:14.484Z,19.17
2022-07-31T05:05:19.378Z,32.17
2022-07-31T05:06:33.317Z,47.83
2022-07-31T05:07:36.492Z,47.97
2022-07-31T05:08:46.266Z,18.45
2022-07-31T05:09:49.314Z,19.70
2022-07-31T05:11:09.957Z,16.10
2022-07-31T05:12:13.410Z,16.95
2022-07-31T05:13:16.330Z,16.50
2022-07-31T05:14:21.839Z,19.45
2022-07-31T05:15:24.234Z,16.10
2022-07-31T05:16:28.829Z,14.52
2022-07-31T05:17:31.449Z,18.85
2022-07-31T05:18:52.622Z,16.00
2022-07-31T05:20:14.261Z,16.55
2022-07-31T05:21:27.358Z,15.98
2022-07-31T05:22:49.088Z,16.80
2022-07-31T05:24:33.573Z,18.33
2022-07-31T05:25:44.899Z,15.65
2022-07-31T05:26:48.160Z,13.45
2022-07-31T05:27:50.708Z,16.90
2022-07-31T05:28:58.437Z,18.75
2022-07-31T05:30:02.452Z,20.85
2022-07-31T05:31:07.157Z,20.80
2022-07-31T05:32:10.682Z,16.63
2022-07-31T05:33:13.379Z,14.38
2022-07-31T05:34:19.786Z,16.27
2022-07-31T05:35:22.226Z,19.42
2022-07-31T05:36:25.727Z,16.75
2022-07-31T05:37:29.463Z,13.98
2022-07-31T05:38:36.023Z,14.63
2022-07-31T05:40:06.189Z,16.83
2022-07-31T05:41:29.685Z,15.73
2022-07-31T05:42:59.346Z,18.55
2022-07-31T05:44:18.079Z,14.32
2022-07-31T05:45:23.019Z,15.40
2022-07-31T05:46:26.308Z,18.60
2022-07-31T05:47:40.667Z,16.65
2022-07-31T05:48:45.036Z,18.02
2022-07-31T05:49:47.444Z,17.75
2022-07-31T05:50:51.835Z,15.00
2022-07-31T05:51:54.518Z,14.02
2022-07-31T05:52:59.473Z,13.30
2022-07-31T05:54:21.323Z,14.90
2022-07-31T05:55:44.751Z,15.27
2022-07-31T05:56:57.246Z,16.10
2022-07-31T05:58:07.142Z,13.00
2022-07-31T05:59:10.973Z,12.40
2022-07-31T06:00:16.351Z,11.45
2022-07-31T06:01:21.111Z,12.15
2022-07-31T06:02:23.529Z,12.63
2022-07-31T06:03:52.009Z,11.57
2022-07-31T06:04:57.564Z,11.38
2022-07-31T06:06:00.630Z,9.63
2022-07-31T06:07:02.849Z,9.43
2022-07-31T06:08:09.649Z,9.90
2022-07-31T06:09:16.277Z,11.07
2022-07-31T06:10:21.678Z,10.95
2022-07-31T06:11:25.042Z,7.88
2022-07-31T06:12:27.392Z,4.68
2022-07-31T06:13:31.171Z,8.23
2022-07-31T06:14:43.521Z,9.45
2022-07-31T06:15:56.962Z,5.85
2022-07-31T06:16:59.088Z,6.75
2022-07-31T06:18:04.186Z,9.38
2022-07-31T06:19:06.914Z,4.15
2022-07-31T06:20:12.478Z,14.10
2022-07-31T06:22:17.034Z,3.37
2022-07-31T06:23:29.566Z,4.30
2022-07-31T06:24:45.422Z,6.80
2022-07-31T06:25:49.263Z,4.47
2022-07-31T06:26:52.551Z,4.20
2022-07-31T06:27:59.277Z,7.10
2022-07-31T06:29:02.369Z,5.03
2022-07-31T06:30:06.910Z,7.30
2022-07-31T06:31:10.176Z,6.80
2022-07-31T06:32:12.350Z,9.90
2022-07-31T06:33:20.163Z,5.20
2022-07-31T06:34:38.007Z,6.03
2022-07-31T06:35:41.733Z,4.30
2022-07-31T06:37:12.070Z,5.93
2022-07-31T06:38:15.591Z,5.27
2022-07-31T06:39:55.429Z,6.40
2022-07-31T06:41:32.078Z,6.07
2022-07-31T06:42:55.031Z,10.43
2022-07-31T06:44:20.543Z,9.10
2022-07-31T06:45:51.433Z,6.17
2022-07-31T06:47:22.693Z,5.47
2022-07-31T06:48:44.496Z,3.97
2022-07-31T06:49:48.830Z,3.20
2022-07-31T06:50:54.245Z,7.40
2022-07-31T06:52:12.297Z,3.60
2022-07-31T06:53:15.747Z,6.60
2022-07-31T06:54:18.206Z,3.00
2022-07-31T06:55:22.749Z,12.13
2022-07-31T06:56:25.497Z,6.40
2022-07-31T06:57:28.674Z,3.40
2022-07-31T06:58:32.574Z,5.17
2022-07-31T06:59:39.274Z,7.83
2022-07-31T07:00:43.878Z,5.10
2022-07-31T07:01:46.136Z,4.40
2022-07-31T07:02:49.577Z,4.93
2022-07-31T07:03:52.182Z,5.97
2022-07-31T07:05:04.900Z,4.50
2022-07-31T07:06:10.339Z,6.30
2022-07-31T07:07:13.895Z,4.23
2022-07-31T07:08:16.486Z,5.83
2022-07-31T07:09:22.169Z,4.43
2022-07-31T07:10:26.878Z,5.20
2022-07-31T07:11:35.055Z,6.40
2022-07-31T07:12:38.251Z,4.67
2022-07-31T07:13:45.755Z,4.47
2022-07-31T07:14:50.937Z,4.77
2022-07-31T07:15:54.378Z,16.60
2022-07-31T07:17:03.725Z,9.07
2022-07-31T07:18:07.267Z,4.87
2022-07-31T07:19:23.843Z,7.80
2022-07-31T07:20:25.924Z,8.77
2022-07-31T07:21:28.993Z,5.77
2022-07-31T07:22:32.793Z,3.70
2022-07-31T07:23:38.078Z,5.90
2022-07-31T07:24:59.710Z,5.20
2022-07-31T07:26:03.951Z,4.93
2022-07-31T07:27:07.487Z,3.97
2022-07-31T07:28:15.111Z,4.23
2022-07-31T07:29:33.823Z,5.23
2022-07-31T07:30:36.460Z,3.90
2022-07-31T07:31:40.538Z,4.07
2022-07-31T07:32:42.663Z,11.23
2022-07-31T07:33:47.948Z,4.50
2022-07-31T07:34:59.820Z,5.70
2022-07-31T07:36:26.879Z,7.83
2022-07-31T07:37:38.943Z,4.33
2022-07-31T07:38:41.868Z,6.20
2022-07-31T07:39:45.059Z,5.63
2022-07-31T07:40:47.664Z,5.37
2022-07-31T07:41:53.143Z,7.53
2022-07-31T07:42:57.859Z,4.90
2022-07-31T07:44:05.012Z,4.93
2022-07-31T07:45:09.252Z,5.70
2022-07-31T07:46:11.629Z,4.80
2022-07-31T07:47:18.008Z,5.33
2022-07-31T07:48:20.343Z,5.70
2022-07-31T07:49:42.259Z,6.13
2022-07-31T07:51:08.191Z,6.63
2022-07-31T07:52:28.967Z,7.53
2022-07-31T07:53:53.948Z,5.90
2022-07-31T07:55:15.793Z,6.07
2022-07-31T07:56:37.496Z,6.43
2022-07-31T07:57:47.223Z,10.93
2022-07-31T07:59:15.013Z,21.43
2022-07-31T08:00:37.080Z,26.57
2022-07-31T08:01:39.922Z,8.10
2022-07-31T08:03:02.715Z,6.13
2022-07-31T08:04:17.975Z,10.07
2022-07-31T08:05:20.525Z,5.60
2022-07-31T08:06:24.335Z,5.90
2022-07-31T08:07:41.565Z,6.33
2022-07-31T08:09:06.124Z,6.70
2022-07-31T08:10:28.325Z,6.10
2022-07-31T08:11:44.949Z,9.90
2022-07-31T08:12:58.394Z,6.33
2022-07-31T08:14:01.537Z,9.30
2022-07-31T08:15:35.153Z,9.30
2022-07-31T08:16:54.244Z,6.80
2022-07-31T08:17:56.699Z,7.07
2022-07-31T08:18:59.839Z,6.43
2022-07-31T08:20:02.163Z,6.37
2022-07-31T08:21:05.498Z,6.63
2022-07-31T08:22:08.977Z,8.60
2022-07-31T08:23:11.789Z,5.67
2022-07-31T08:24:21.503Z,6.10
2022-07-31T08:25:23.761Z,6.20
2022-07-31T08:26:48.421Z,6.33
2022-07-31T08:27:51.708Z,5.97
2022-07-31T08:28:58.666Z,9.67
2022-07-31T08:30:08.962Z,6.10
2022-07-31T08:31:12.405Z,5.50
2022-07-31T08:32:32.547Z,5.40
2022-07-31T08:33:39.008Z,5.23
2022-07-31T08:34:42.222Z,4.83
2022-07-31T08:35:50.527Z,4.63
2022-07-31T08:36:53.565Z,6.37
2022-07-31T08:38:03.308Z,5.97
2022-07-31T08:39:21.120Z,4.77
2022-07-31T08:40:42.994Z,5.03
2022-07-31T08:41:46.075Z,7.27
2022-07-31T08:42:49.393Z,4.60
2022-07-31T08:44:03.288Z,5.80
2022-07-31T08:45:10.332Z,4.57
2022-07-31T08:46:21.366Z,5.17
2022-07-31T08:47:26.232Z,4.33
2022-07-31T08:48:33.014Z,9.70
2022-07-31T08:49:40.347Z,6.40
2022-07-31T08:50:52.075Z,9.70
2022-07-31T08:52:28.437Z,6.47
2022-07-31T08:53:40.249Z,4.63
2022-07-31T08:54:52.510Z,4.70
2022-07-31T08:55:57.690Z,4.37
2022-07-31T08:57:06.265Z,4.80
2022-07-31T08:58:19.214Z,4.70
2022-07-31T08:59:23.183Z,6.20
2022-07-31T09:00:28.859Z,4.87
2022-07-31T09:01:34.174Z,4.83
2022-07-31T09:02:41.012Z,8.87
2022-07-31T09:04:03.244Z,4.53
2022-07-31T09:05:06.616Z,7.40
2022-07-31T09:06:11.138Z,5.53
2022-07-31T09:07:15.373Z,5.20
2022-07-31T09:08:24.408Z,5.10
2022-07-31T09:09:51.656Z,6.50
2022-07-31T09:11:03.266Z,5.00
2022-07-31T09:12:12.400Z,8.70
2022-07-31T09:14:01.484Z,5.70
2022-07-31T09:15:37.435Z,5.97
2022-07-31T09:16:49.256Z,4.90
2022-07-31T09:17:59.495Z,5.13
2022-07-31T09:19:53.958Z,6.30
2022-07-31T09:20:29.785Z,5.23
2022-07-31T09:21:40.029Z,4.97
2022-07-31T09:22:43.087Z,17.10
2022-07-31T09:23:49.262Z,39.93
2022-07-31T09:24:53.185Z,19.23
2022-07-31T09:25:57.181Z,6.63
2022-07-31T09:27:05.951Z,19.73
2022-07-31T09:28:11.015Z,9.33
2022-07-31T09:29:13.567Z,5.87
2022-07-31T09:30:17.368Z,5.33
2022-07-31T09:31:40.428Z,5.43
2022-07-31T09:33:21.751Z,5.17
2022-07-31T09:34:36.315Z,5.90
2022-07-31T09:35:50.396Z,4.83
2022-07-31T09:36:52.526Z,5.47
2022-07-31T09:38:33.819Z,6.23
2022-07-31T09:39:55.648Z,7.53
2022-07-31T09:41:55.830Z,6.43
2022-07-31T09:42:55.204Z,4.30
2022-07-31T09:44:02.815Z,4.33
2022-07-31T09:45:19.717Z,5.43
2022-07-31T09:46:22.230Z,4.97
2022-07-31T09:47:30.091Z,12.83
2022-07-31T09:48:37.065Z,4.57
2022-07-31T09:49:40.074Z,5.43
2022-07-31T09:50:53.836Z,4.47
2022-07-31T09:51:55.994Z,8.10
2022-07-31T09:53:01.330Z,7.13
2022-07-31T09:54:05.688Z,4.73
2022-07-31T09:55:32.005Z,5.37
2022-07-31T09:56:35.862Z,5.17
2022-07-31T09:57:41.375Z,5.57
2022-07-31T09:58:52.657Z,9.83
2022-07-31T09:59:57.018Z,10.47
2022-07-31T10:01:01.069Z,8.07
2022-07-31T10:02:07.888Z,9.90
2022-07-31T10:03:14.974Z,6.87
2022-07-31T10:04:18.949Z,4.80
2022-07-31T10:05:24.980Z,5.33
2022-07-31T10:06:33.209Z,5.40
2022-07-31T10:07:39.147Z,4.87
2022-07-31T10:08:53.535Z,5.70
2022-07-31T10:10:02.072Z,4.00
2022-07-31T10:11:25.247Z,5.70
2022-07-31T10:12:50.565Z,4.40
2022-07-31T10:13:56.497Z,4.97
2022-07-31T10:15:06.660Z,4.23
2022-07-31T10:16:09.376Z,4.40
2022-07-31T10:17:39.618Z,5.27
2022-07-31T10:19:12.176Z,5.17
2022-07-31T10:20:38.887Z,4.60
2022-07-31T10:22:01.675Z,7.03
2022-07-31T10:23:12.177Z,6.03
2022-07-31T10:24:15.030Z,5.53
2022-07-31T10:25:22.674Z,9.07
2022-07-31T10:26:44.513Z,7.23
2022-07-31T10:27:48.934Z,14.63
2022-07-31T10:28:53.004Z,8.83
2022-07-31T10:29:57.226Z,6.27
2022-07-31T10:31:01.574Z,5.80
2022-07-31T10:32:06.035Z,11.47
2022-07-31T10:33:40.684Z,7.70
2022-07-31T10:34:55.897Z,4.70
2022-07-31T10:36:22.458Z,5.13
2022-07-31T10:38:12.822Z,4.40
2022-07-31T10:39:46.748Z,4.60
2022-07-31T10:41:20.666Z,4.73
2022-07-31T10:42:35.894Z,8.70
2022-07-31T10:43:46.817Z,4.70
2022-07-31T10:45:11.090Z,4.70
2022-07-31T10:46:29.434Z,5.90
2022-07-31T10:48:00.616Z,5.07
2022-07-31T10:49:41.529Z,5.20
2022-07-31T10:51:10.203Z,8.63
2022-07-31T10:52:37.163Z,7.33
2022-07-31T10:53:56.812Z,8.00
2022-07-31T10:55:23.271Z,9.53
2022-07-31T10:56:53.062Z,6.17
2022-07-31T10:58:20.760Z,5.87
2022-07-31T10:59:29.195Z,11.27
2022-07-31T11:00:46.498Z,5.90
2022-07-31T11:02:02.794Z,4.87
2022-07-31T11:03:16.327Z,7.27
2022-07-31T11:04:39.457Z,6.77
2022-07-31T11:06:02.188Z,6.97
2022-07-31T11:07:27.907Z,7.00
2022-07-31T11:08:52.470Z,7.33
2022-07-31T11:10:16.540Z,5.17
2022-07-31T11:11:38.813Z,6.40
2022-07-31T11:13:00.813Z,6.57
2022-07-31T11:14:32.959Z,6.80
2022-07-31T11:16:04.926Z,9.53
2022-07-31T11:18:22.388Z,5.30
2022-07-31T11:19:17.432Z,5.10
2022-07-31T11:20:22.202Z,5.80
2022-07-31T11:21:40.266Z,5.77
2022-07-31T11:22:53.199Z,5.37
2022-07-31T11:24:03.174Z,8.07
2022-07-31T11:25:07.691Z,7.30
2022-07-31T11:26:11.858Z,5.13
2022-07-31T11:27:13.958Z,8.70
2022-07-31T11:28:23.648Z,7.27
2022-07-31T11:30:00.249Z,5.33
2022-07-31T11:30:54.099Z,5.37
2022-07-31T11:32:00.374Z,8.63
2022-07-31T11:33:04.511Z,9.20
2022-07-31T11:34:06.761Z,6.10
2022-07-31T11:35:10.066Z,5.30
2022-07-31T11:36:15.020Z,7.00
2022-07-31T11:37:20.588Z,6.90
2022-07-31T11:38:28.834Z,12.30
2022-07-31T11:39:37.241Z,7.30
2022-07-31T11:40:40.541Z,10.70
2022-07-31T11:41:45.731Z,5.47
2022-07-31T11:42:59.761Z,8.00
2022-07-31T11:44:09.664Z,11.97
2022-07-31T11:45:16.825Z,5.60
2022-07-31T11:46:26.173Z,7.27
2022-07-31T11:48:12.361Z,6.33
2022-07-31T11:49:03.071Z,5.53
2022-07-31T11:50:06.402Z,19.10
2022-07-31T11:51:09.494Z,9.73
2022-07-31T11:52:31.264Z,7.97
2022-07-31T11:53:43.761Z,8.03
2022-07-31T11:54:45.846Z,7.33
2022-07-31T11:55:50.707Z,7.80
2022-07-31T11:56:53.978Z,4.93
2022-07-31T11:57:58.018Z,3.83
2022-07-31T11:59:01.030Z,5.10
2022-07-31T12:00:27.295Z,12.87
2022-07-31T12:01:31.296Z,5.00
2022-07-31T12:02:33.489Z,4.20
2022-07-31T12:03:40.003Z,9.60
2022-07-31T12:04:42.256Z,4.83
2022-07-31T12:05:46.606Z,4.93
2022-07-31T12:06:59.167Z,4.20
2022-07-31T12:08:01.679Z,4.37
2022-07-31T12:09:06.859Z,15.17
2022-07-31T12:10:11.733Z,6.73
2022-07-31T12:11:15.847Z,7.40
2022-07-31T12:12:19.129Z,16.70
2022-07-31T12:13:23.710Z,5.17
2022-07-31T12:14:30.869Z,6.77
2022-07-31T12:15:34.296Z,11.00
2022-07-31T12:16:41.952Z,6.10
2022-07-31T12:17:44.931Z,12.43
2022-07-31T12:18:51.152Z,4.50
2022-07-31T12:19:57.783Z,4.80
2022-07-31T12:21:05.922Z,4.60
2022-07-31T12:22:16.465Z,7.30
2022-07-31T12:23:38.460Z,5.37
2022-07-31T12:24:44.460Z,5.37
2022-07-31T12:25:46.581Z,4.90
2022-07-31T12:26:52.061Z,4.80
2022-07-31T12:27:54.820Z,4.83
2022-07-31T12:28:59.237Z,24.97
2022-07-31T12:30:11.921Z,6.20
2022-07-31T12:31:14.945Z,6.40
2022-07-31T12:32:26.682Z,4.93
2022-07-31T12:33:40.817Z,5.10
2022-07-31T12:34:46.944Z,9.27
2022-07-31T12:35:55.943Z,5.90
2022-07-31T12:37:02.567Z,4.90
2022-07-31T12:38:36.790Z,5.33
2022-07-31T12:39:47.852Z,14.67
2022-07-31T12:41:07.984Z,7.93
2022-07-31T12:42:31.241Z,4.90
2022-07-31T12:43:35.931Z,8.50
2022-07-31T12:44:51.024Z,9.83
2022-07-31T12:46:00.445Z,6.83
2022-07-31T12:47:11.096Z,4.97
2022-07-31T12:48:14.497Z,4.80
2022-07-31T12:49:19.563Z,5.23
2022-07-31T12:50:23.143Z,8.60
2022-07-31T12:51:45.111Z,6.70
2022-07-31T12:52:51.978Z,18.27
2022-07-31T12:53:54.995Z,6.23
2022-07-31T12:54:57.576Z,4.83
2022-07-31T12:56:00.637Z,5.93
2022-07-31T12:57:04.754Z,4.47
2022-07-31T12:58:08.942Z,4.57
2022-07-31T12:59:14.160Z,6.80
2022-07-31T13:00:19.382Z,6.10
2022-07-31T13:01:22.501Z,4.87
2022-07-31T13:02:29.732Z,5.43
2022-07-31T13:03:46.135Z,5.17
2022-07-31T13:04:52.971Z,5.27
2022-07-31T13:05:56.706Z,5.10
2022-07-31T13:07:03.325Z,4.70
2022-07-31T13:08:09.003Z,5.20
2022-07-31T13:09:13.094Z,5.30
2022-07-31T13:10:23.731Z,5.10
2022-07-31T13:11:45.574Z,4.70
2022-07-31T13:12:54.459Z,7.20
2022-07-31T13:14:01.368Z,7.70
2022-07-31T13:15:05.341Z,4.97
2022-07-31T13:16:08.113Z,7.03
2022-07-31T13:17:15.608Z,4.80
2022-07-31T13:18:20.828Z,6.23
2022-07-31T13:19:26.680Z,5.43
2022-07-31T13:20:31.541Z,7.77
2022-07-31T13:21:49.245Z,8.37
2022-07-31T13:22:55.149Z,5.43
2022-07-31T13:23:58.243Z,5.23
2022-07-31T13:25:03.158Z,6.63
2022-07-31T13:26:05.817Z,15.10
2022-07-31T13:27:10.157Z,8.70
2022-07-31T13:28:15.857Z,10.23
2022-07-31T13:29:21.112Z,8.37
2022-07-31T13:30:24.352Z,12.13
2022-07-31T13:31:29.840Z,5.60
2022-07-31T13:32:32.877Z,14.33
2022-07-31T13:33:37.097Z,5.40
2022-07-31T13:34:40.614Z,5.90
2022-07-31T13:35:45.305Z,5.57
2022-07-31T13:36:48.494Z,5.40
2022-07-31T13:37:53.338Z,9.70
2022-07-31T13:38:56.075Z,9.93
2022-07-31T13:40:00.393Z,5.17
2022-07-31T13:41:21.404Z,6.60
2022-07-31T13:42:29.781Z,4.87
2022-07-31T13:43:34.305Z,4.90
2022-07-31T13:44:45.677Z,4.97
2022-07-31T13:45:50.511Z,5.30
2022-07-31T13:46:54.293Z,7.83
2022-07-31T13:48:00.500Z,6.93
2022-07-31T13:49:09.252Z,4.90
2022-07-31T13:50:16.857Z,6.60
2022-07-31T13:51:24.797Z,4.97
2022-07-31T13:52:36.102Z,4.63
2022-07-31T13:53:39.930Z,5.50
2022-07-31T13:54:47.399Z,5.30
2022-07-31T13:55:55.099Z,5.90
2022-07-31T13:56:59.384Z,9.70
2022-07-31T13:58:02.390Z,5.53
2022-07-31T13:59:11.998Z,5.90
2022-07-31T14:00:17.229Z,11.13
2022-07-31T14:01:22.072Z,13.80
2022-07-31T14:02:26.407Z,17.00
2022-07-31T14:03:30.748Z,10.40
2022-07-31T14:04:39.349Z,4.40
2022-07-31T14:05:47.689Z,66.97
2022-07-31T14:06:54.240Z,9.20
2022-07-31T14:08:30.571Z,10.67
2022-07-31T14:09:26.400Z,6.90
2022-07-31T14:10:32.211Z,3.63
2022-07-31T14:11:37.040Z,4.53
2022-07-31T14:12:40.550Z,4.27
2022-07-31T14:13:44.048Z,4.07
2022-07-31T14:14:48.783Z,3.83
2022-07-31T14:15:51.620Z,3.63
2022-07-31T14:16:57.571Z,3.87
2022-07-31T14:18:01.021Z,3.73
2022-07-31T14:19:06.290Z,5.43
2022-07-31T14:20:11.102Z,5.77
2022-07-31T14:21:16.662Z,4.27
2022-07-31T14:22:20.111Z,7.93
2022-07-31T14:23:34.191Z,8.43
2022-07-31T14:24:38.720Z,11.80
2022-07-31T14:25:42.002Z,6.40
2022-07-31T14:26:45.338Z,13.07
2022-07-31T14:27:50.230Z,4.20
2022-07-31T14:28:53.729Z,4.27
2022-07-31T14:29:57.282Z,3.17
2022-07-31T14:31:01.469Z,3.70
2022-07-31T14:32:33.432Z,4.93
2022-07-31T14:33:40.048Z,5.80
2022-07-31T14:34:42.434Z,4.03
2022-07-31T14:35:45.740Z,5.33
2022-07-31T14:36:56.938Z,3.20
2022-07-31T14:38:03.997Z,3.30
2022-07-31T14:39:07.662Z,5.77
2022-07-31T14:40:11.437Z,4.07
2022-07-31T14:41:14.515Z,4.23
2022-07-31T14:42:22.239Z,3.63
2022-07-31T14:43:29.977Z,4.30
2022-07-31T14:44:32.029Z,3.70
2022-07-31T14:45:42.909Z,4.43
2022-07-31T14:46:57.588Z,3.67
2022-07-31T14:47:59.746Z,4.40
2022-07-31T14:49:03.170Z,3.20
2022-07-31T14:50:12.025Z,3.17
2022-07-31T14:51:20.053Z,3.90
2022-07-31T14:52:22.449Z,4.50
2022-07-31T14:53:25.734Z,6.00
2022-07-31T14:54:28.574Z,5.13
2022-07-31T14:55:34.522Z,5.30
2022-07-31T14:57:00.234Z,6.03
2022-07-31T14:57:59.853Z,3.77
2022-07-31T14:59:02.970Z,4.47
2022-07-31T15:00:12.414Z,3.53
2022-07-31T15:01:17.359Z,3.67
2022-07-31T15:02:22.537Z,6.27
2022-07-31T15:03:26.182Z,4.17
2022-07-31T15:04:28.323Z,4.27